Time;durP1;ratioP1;P1;durP2;ratioP2;P2;SDS_P1;SDS_P2;PMS_P1;PMS_P2;Temp;Humidity;BMP_temperature;BMP_pressure;BME280_temperature;BME280_humidity;BME280_pressure;Samples;Min_cycle;Max_cycle;Signal;HPM_P1;HPM_P2
2022/01/08 00:03:21;;;;;;;27.17;8.68;;;;;;;-1.04;91.15;100870.66;10373857;28;20030;-88
2022/01/08 00:08:24;;;;;;;18.08;9.32;;;;;;;-1.24;92.11;100879.03;10373694;28;20034;-88
2022/01/08 00:13:25;;;;;;;24.42;11.68;;;;;;;-1.42;91.50;100874.72;10372918;28;20486;-88
2022/01/08 00:18:26;;;;;;;22.40;10.90;;;;;;;-1.57;91.68;100874.16;10374519;28;20025;-88
2022/01/08 00:23:27;;;;;;;20.63;10.20;;;;;;;-1.78;92.02;100876.47;10373812;28;20049;-84
2022/01/08 00:28:28;;;;;;;20.27;9.80;;;;;;;-1.97;91.72;100881.47;10355938;28;20030;-88
2022/01/08 00:33:28;;;;;;;14.77;10.00;;;;;;;-2.09;91.89;100879.50;10374264;28;20042;-88
2022/01/08 00:38:29;;;;;;;19.53;12.27;;;;;;;-2.07;92.51;100885.69;10371072;28;20045;-88
2022/01/08 00:43:30;;;;;;;22.07;11.87;;;;;;;-2.14;92.31;100888.41;10357425;28;20034;-88
2022/01/08 00:48:31;;;;;;;20.40;13.03;;;;;;;-2.24;92.95;100906.19;10353739;28;20037;-88
2022/01/08 00:53:32;;;;;;;25.45;13.80;;;;;;;-2.26;92.80;100905.13;10374264;28;20034;-87
2022/01/08 00:58:35;;;;;;;24.30;14.23;;;;;;;-2.25;93.01;100910.44;10380678;28;20037;-87
2022/01/08 01:03:36;;;;;;;21.45;13.40;;;;;;;-2.26;92.84;100925.66;10371074;28;20022;-88
2022/01/08 01:08:37;;;;;;;21.57;15.03;;;;;;;-2.38;93.40;100921.09;10371590;28;20069;-87
2022/01/08 01:13:39;;;;;;;24.17;15.30;;;;;;;-2.46;93.06;100931.38;10356155;28;20025;-88
2022/01/08 01:18:41;;;;;;;26.50;16.85;;;;;;;-2.53;92.90;100927.25;10371449;28;20045;-87
2022/01/08 01:23:43;;;;;;;28.55;17.23;;;;;;;-2.52;93.50;100935.13;10355589;28;20041;-88
2022/01/08 01:49:57;;;;;;;39.85;23.88;;;;;;;-2.53;93.78;100924.69;10372161;28;20018;-87
2022/01/08 01:54:57;;;;;;;;;;;;;;;-2.62;93.50;100934.94;10369129;28;20053;-87
2022/01/08 01:59:58;;;;;;;37.20;25.23;;;;;;;-2.60;93.64;100935.06;10373591;28;19957;-86
2022/01/08 02:05:00;;;;;;;45.92;26.75;;;;;;;-2.45;93.73;100939.19;10380411;28;20040;-87
2022/01/08 02:10:01;;;;;;;58.30;32.70;;;;;;;-2.40;94.21;100934.53;10378999;28;20088;-88
2022/01/08 02:15:02;;;;;;;42.83;25.95;;;;;;;-2.28;94.06;100934.84;10378389;28;20065;-87
2022/01/08 02:20:04;;;;;;;54.13;27.70;;;;;;;-2.38;93.87;100923.66;10360840;28;20481;-87
2022/01/08 02:25:06;;;;;;;48.67;26.52;;;;;;;-2.25;93.85;100928.38;10380073;28;20056;-87
2022/01/08 02:30:07;;;;;;;53.17;30.55;;;;;;;-2.25;94.25;100930.94;10360402;28;20038;-86
2022/01/08 02:35:21;;;;;;;49.57;29.30;;;;;;;-2.37;93.78;100930.59;10377286;28;20033;-86
2022/01/08 02:45:50;;;;;;;53.35;30.33;;;;;;;-2.41;93.59;100928.50;10364910;28;20089;-87
2022/01/08 02:50:51;;;;;;;53.85;29.10;;;;;;;-2.42;94.09;100939.50;10375917;28;20524;-87
2022/01/08 02:55:52;;;;;;;54.30;31.63;;;;;;;-2.44;94.31;100947.81;10376637;28;20156;-86
2022/01/08 03:00:58;;;;;;;46.30;31.00;;;;;;;-2.41;94.48;100959.25;10376614;28;20111;-86
2022/01/08 03:05:59;;;;;;;44.88;30.08;;;;;;;-2.44;93.90;100953.81;10378083;28;20057;-86
2022/01/08 03:11:00;;;;;;;54.23;32.70;;;;;;;-2.39;93.99;100954.28;10377211;28;20388;-87
2022/01/08 03:16:08;;;;;;;59.45;31.38;;;;;;;-2.32;94.04;100966.06;10374930;28;20052;-85
2022/01/08 03:21:35;;;;;;;55.80;32.95;;;;;;;-2.15;94.01;100958.41;10375180;28;20420;-86
2022/01/08 03:26:44;;;;;;;52.20;34.15;;;;;;;-2.00;94.83;100970.94;10361014;28;20073;-85
2022/01/08 03:31:49;;;;;;;58.08;34.45;;;;;;;-1.98;94.84;100961.72;10372708;28;20045;-86
2022/01/08 03:36:57;;;;;;;59.10;37.65;;;;;;;-2.05;94.57;100969.56;10375173;28;20084;-86
2022/01/08 03:42:01;;;;;;;56.38;35.47;;;;;;;-2.19;94.69;100970.78;10377372;28;20049;-86
2022/01/08 03:52:25;;;;;;;61.45;37.42;;;;;;;-2.04;94.61;100976.50;10361799;28;20030;-87
2022/01/08 03:57:34;;;;;;;57.25;37.78;;;;;;;-2.06;94.34;100984.06;10357330;28;20125;-87
2022/01/08 04:02:36;;;;;;;63.53;40.40;;;;;;;-2.04;94.70;100984.22;10373977;28;20022;-86
2022/01/08 04:07:41;;;;;;;57.10;34.55;;;;;;;-2.12;94.18;100979.22;10373156;28;20512;-87
2022/01/08 04:12:48;;;;;;;64.45;33.58;;;;;;;-2.22;94.30;100976.47;10358189;28;20022;-86
2022/01/08 04:17:53;;;;;;;69.90;37.47;;;;;;;-2.37;94.04;100992.13;10372687;28;20042;-86
2022/01/08 04:22:56;;;;;;;49.95;34.45;;;;;;;-2.55;94.32;100995.41;10371869;28;20172;-86
2022/01/08 04:27:59;;;;;;;58.78;38.47;;;;;;;-2.51;93.77;100994.97;10374348;28;20059;-86
2022/01/08 04:33:04;;;;;;;73.70;38.17;;;;;;;-2.31;94.43;101004.69;10371976;28;20030;-85
2022/01/08 04:38:05;;;;;;;55.72;37.47;;;;;;;-2.31;94.67;101006.31;10373623;28;20054;-85
2022/01/08 04:43:07;;;;;;;56.75;36.78;;;;;;;-2.47;94.05;100991.97;10373135;28;20041;-85
2022/01/08 04:48:08;;;;;;;52.15;33.13;;;;;;;-2.46;94.60;101004.03;10372370;28;20022;-85
2022/01/08 04:53:10;;;;;;;58.05;33.35;;;;;;;-2.66;94.21;101018.28;10344961;28;20398;-86
2022/01/08 04:58:11;;;;;;;56.70;33.17;;;;;;;-2.75;94.27;101024.13;10366147;28;20112;-88
2022/01/08 05:03:11;;;;;;;59.90;37.07;;;;;;;-2.79;94.22;101027.13;10372442;28;20499;-87
2022/01/08 05:08:12;;;;;;;57.50;32.67;;;;;;;-2.76;94.15;101030.00;10372513;28;20034;-87
2022/01/08 05:13:12;;;;;;;53.57;33.93;;;;;;;-2.75;94.83;101036.94;10372550;28;20113;-86
2022/01/08 05:18:13;;;;;;;54.60;32.47;;;;;;;-2.82;94.26;101040.50;10372047;28;20057;-86
2022/01/08 05:23:13;;;;;;;60.50;35.42;;;;;;;-2.66;94.37;101041.34;10371383;28;20052;-86
2022/01/08 05:28:14;;;;;;;51.78;30.92;;;;;;;-2.60;94.36;101050.41;10371977;28;20065;-87
2022/01/08 05:33:14;;;;;;;52.27;27.17;;;;;;;-2.52;94.58;101047.91;10371098;28;20030;-86
2022/01/08 05:38:15;;;;;;;45.60;29.33;;;;;;;-2.47;94.72;101047.47;10353744;28;20505;-86
2022/01/08 05:43:15;;;;;;;45.72;24.13;;;;;;;-2.46;94.89;101041.59;10370728;28;20041;-86
2022/01/08 05:48:16;;;;;;;41.93;25.60;;;;;;;-2.54;94.40;101051.97;10371810;28;20173;-86
2022/01/08 05:53:20;;;;;;;66.32;31.88;;;;;;;-2.20;94.23;101051.03;10369480;28;20030;-86
2022/01/08 05:58:20;;;;;;;61.15;30.58;;;;;;;-2.16;94.66;101046.34;10370526;28;20029;-86
2022/01/08 06:03:21;;;;;;;42.43;28.07;;;;;;;-2.07;94.76;101054.09;10371190;28;20057;-87
2022/01/08 06:08:21;;;;;;;43.03;21.85;;;;;;;-2.01;95.15;101061.47;10372080;28;20080;-86
2022/01/08 06:13:21;;;;;;;34.58;17.90;;;;;;;-2.14;95.13;101057.66;10359882;28;20060;-85
2022/01/08 06:18:22;;;;;;;49.50;29.45;;;;;;;-2.25;94.44;101060.78;10363388;28;20030;-86
2022/01/08 06:23:22;;;;;;;57.60;30.02;;;;;;;-2.28;94.94;101063.97;10370698;28;20092;-85
2022/01/08 06:28:23;;;;;;;52.00;30.02;;;;;;;-2.25;94.80;101061.72;10377804;28;20049;-84
2022/01/08 06:33:26;;;;;;;47.85;27.42;;;;;;;-2.30;94.33;101070.59;10336434;28;20474;-86
2022/01/08 06:38:27;;;;;;;56.85;29.80;;;;;;;-2.41;94.75;101077.19;10391276;28;20045;-85
2022/01/08 06:43:27;;;;;;;56.67;28.77;;;;;;;-2.26;94.74;101080.41;10367334;28;20443;-84
2022/01/08 06:48:28;;;;;;;57.42;29.90;;;;;;;-2.11;94.63;101075.94;10376395;28;20208;-85
2022/01/08 06:53:28;;;;;;;65.55;29.95;;;;;;;-2.07;94.85;101078.06;10376739;28;20492;-85
2022/01/08 06:58:29;;;;;;;60.90;30.05;;;;;;;-2.13;94.37;101082.56;10378019;28;20057;-85
2022/01/08 07:03:30;;;;;;;52.70;29.77;;;;;;;-2.12;94.72;101084.38;10354105;28;20504;-85
2022/01/08 07:08:30;;;;;;;63.90;34.03;;;;;;;-2.03;94.86;101079.28;10336051;28;20081;-85
2022/01/08 07:13:31;;;;;;;58.08;29.35;;;;;;;-2.10;94.64;101080.31;10355586;28;20104;-85
2022/01/08 07:18:31;;;;;;;51.38;28.20;;;;;;;-2.14;94.31;101075.63;10374554;28;20021;-88
2022/01/08 07:23:32;;;;;;;60.15;32.92;;;;;;;-2.13;94.36;101081.66;10367943;28;20029;-87
2022/01/08 07:28:32;;;;;;;52.78;27.50;;;;;;;-2.09;94.92;101074.44;10378291;28;20042;-90
2022/01/08 07:33:33;;;;;;;60.85;29.77;;;;;;;-2.20;94.30;101080.13;10373643;28;20108;-90
2022/01/08 07:38:34;;;;;;;57.03;29.70;;;;;;;-2.31;94.95;101084.16;10374273;28;20560;-90
2022/01/08 07:43:34;;;;;;;61.58;34.38;;;;;;;-2.13;94.30;101076.53;10370426;28;20046;-88
2022/01/08 07:48:34;;;;;;;66.50;34.23;;;;;;;-2.11;94.95;101082.72;10371065;28;20131;-87
2022/01/08 07:53:35;;;;;;;98.53;36.90;;;;;;;-1.84;94.41;101091.41;10373614;28;20061;-87
2022/01/08 07:58:35;;;;;;;74.80;38.30;;;;;;;-1.63;95.16;101088.44;10369999;28;20466;-86
2022/01/08 08:03:36;;;;;;;87.90;41.10;;;;;;;-1.43;94.38;101086.94;10354866;28;20037;-86
2022/01/08 08:08:36;;;;;;;86.18;44.58;;;;;;;-1.22;94.99;101080.44;10371302;28;20045;-85
2022/01/08 08:13:37;;;;;;;90.65;48.65;;;;;;;-1.06;95.17;101063.94;10366572;28;20042;-86
2022/01/08 08:18:37;;;;;;;102.40;50.17;;;;;;;-0.87;94.92;101060.59;10371275;28;20062;-85
2022/01/08 08:23:38;;;;;;;91.07;47.25;;;;;;;-0.76;95.25;101050.59;10371314;28;20064;-87
2022/01/08 08:28:38;;;;;;;94.25;48.28;;;;;;;-0.71;94.54;101051.00;10370181;28;20107;-86
2022/01/08 08:33:39;;;;;;;99.07;47.78;;;;;;;-0.57;94.77;101043.72;10337538;28;20058;-87
2022/01/08 08:38:39;;;;;;;85.28;42.95;;;;;;;-0.52;95.21;101047.63;10354699;28;20053;-90
2022/01/08 08:43:40;;;;;;;83.20;46.58;;;;;;;-0.42;94.41;101034.88;10375109;28;20501;-89
2022/01/08 08:48:40;;;;;;;83.28;40.80;;;;;;;-0.36;94.53;101035.47;10369400;28;20065;-91
2022/01/08 08:53:41;;;;;;;84.82;43.80;;;;;;;-0.30;94.17;101046.31;10370560;28;20029;-92
2022/01/08 08:58:42;;;;;;;88.20;46.15;;;;;;;-0.16;94.42;101036.41;10369984;28;20076;-92
2022/01/08 09:03:42;;;;;;;75.85;40.55;;;;;;;-0.07;94.39;101032.13;10377337;28;20022;-92
2022/01/08 09:08:44;;;;;;;73.50;42.10;;;;;;;-0.04;93.80;101029.84;10374533;28;20133;-85
2022/01/08 09:13:44;;;;;;;69.13;39.40;;;;;;;0.06;94.13;101031.59;10369404;28;20057;-87
2022/01/08 09:18:45;;;;;;;66.30;37.72;;;;;;;0.13;93.84;101031.41;10370746;28;20057;-87
2022/01/08 09:23:45;;;;;;;64.72;34.65;;;;;;;0.21;93.42;101023.47;10368761;28;20120;-86
2022/01/08 09:28:47;;;;;;;65.97;33.40;;;;;;;0.37;93.98;101023.19;10371024;28;20045;-86
2022/01/08 09:33:47;;;;;;;55.13;28.07;;;;;;;0.59;93.28;101020.91;10371030;28;20042;-84
2022/01/08 09:38:48;;;;;;;43.65;29.45;;;;;;;0.78;92.76;101015.72;10354107;28;20085;-85
2022/01/08 09:43:48;;;;;;;54.63;27.40;;;;;;;0.98;92.02;101003.69;10371946;28;20516;-86
2022/01/08 09:48:49;;;;;;;51.58;28.13;;;;;;;1.07;90.85;100990.72;10371063;28;20137;-85
2022/01/08 09:53:50;;;;;;;66.22;31.83;;;;;;;1.11;90.55;100990.22;10371590;28;20465;-87
2022/01/08 09:58:51;;;;;;;49.55;25.35;;;;;;;1.12;89.72;100974.88;10353838;28;20056;-92
2022/01/08 10:03:52;;;;;;;35.10;20.03;;;;;;;1.10;88.29;100963.53;10372016;28;20080;-87
2022/01/08 10:08:52;;;;;;;38.15;19.55;;;;;;;1.27;88.09;100961.50;10338186;28;20381;-83
2022/01/08 10:14:04;;;;;;;25.92;16.05;;;;;;;1.48;87.45;100958.97;10369547;28;20099;-85
2022/01/08 10:19:16;;;;;;;27.95;15.02;;;;;;;1.70;86.48;100935.91;10355698;28;20030;-90
2022/01/08 10:24:19;;;;;;;28.17;17.90;;;;;;;1.81;85.25;100934.22;10378448;28;20036;-90
2022/01/08 10:29:21;;;;;;;24.83;13.52;;;;;;;1.74;84.89;100920.78;10383546;28;20408;-94
2022/01/08 10:34:26;;;;;;;23.48;13.48;;;;;;;1.81;84.37;100893.84;10362028;28;20392;-93
2022/01/08 10:39:34;;;;;;;23.52;12.93;;;;;;;1.99;82.63;100868.63;10361633;28;20046;-90
2022/01/08 10:44:34;;;;;;;20.73;11.15;;;;;;;2.12;82.05;100864.47;10378535;28;20064;-92
2022/01/08 10:49:45;;;;;;;22.75;10.38;;;;;;;2.10;81.25;100855.69;10377024;28;20152;-92
2022/01/08 10:55:06;;;;;;;24.23;11.30;;;;;;;2.15;81.02;100842.41;10380426;28;20143;-94
2022/01/08 11:00:09;;;;;;;19.30;11.30;;;;;;;2.39;81.09;100827.06;10378903;28;20041;-93
2022/01/08 11:05:15;;;;;;;25.13;11.40;;;;;;;2.39;79.08;100813.22;10378732;28;20054;-93
2022/01/08 11:10:18;;;;;;;18.08;10.70;;;;;;;2.34;79.00;100798.28;10381131;28;20101;-92
2022/01/08 11:20:25;;;;;;;18.90;8.43;;;;;;;2.33;78.80;100783.56;10378402;28;20053;-93
2022/01/08 11:25:39;;;;;;;19.80;9.20;;;;;;;2.15;78.49;100761.44;10362605;28;20026;-92
2022/01/08 11:30:58;;;;;;;22.00;8.90;;;;;;;2.24;79.20;100748.38;10346925;28;20036;-94
2022/01/08 11:35:59;;;;;;;26.55;8.63;;;;;;;2.22;78.99;100724.09;10360137;28;20133;-93
2022/01/08 11:40:59;;;;;;;12.63;7.22;;;;;;;2.39;77.95;100704.75;10361287;28;20573;-93
2022/01/08 11:46:06;;;;;;;19.33;8.70;;;;;;;2.40;78.59;100691.03;10359507;28;20489;-93
2022/01/08 11:51:07;;;;;;;11.43;6.95;;;;;;;2.48;78.35;100695.13;10327587;28;20033;-93
2022/01/08 11:56:07;;;;;;;11.63;6.53;;;;;;;2.52;78.55;100689.41;10343715;28;20022;-93
2022/01/08 12:01:15;;;;;;;11.52;6.63;;;;;;;2.43;78.61;100675.78;10359163;28;20069;-94
2022/01/08 12:06:18;;;;;;;15.07;7.03;;;;;;;2.62;78.00;100655.75;10361726;28;20548;-93
2022/01/08 12:11:19;;;;;;;15.18;5.57;;;;;;;2.81;77.47;100633.88;10376831;28;20049;-92
2022/01/08 12:16:39;;;;;;;12.93;7.28;;;;;;;2.86;77.57;100621.31;10373951;28;20504;-82
2022/01/08 12:21:40;;;;;;;10.32;5.10;;;;;;;2.96;77.57;100617.69;10358044;28;20060;-86
2022/01/08 12:26:41;;;;;;;10.07;5.20;;;;;;;2.90;77.09;100598.38;10356168;28;20030;-79
2022/01/08 12:31:44;;;;;;;8.18;4.10;;;;;;;2.76;77.54;100602.53;10373281;28;20056;-78
2022/01/08 12:37:07;;;;;;;8.45;4.50;;;;;;;2.76;77.00;100599.03;10372937;28;20129;-78
2022/01/08 12:42:30;;;;;;;6.22;3.90;;;;;;;2.71;77.76;100579.69;10358013;28;20029;-77
2022/01/08 12:47:52;;;;;;;7.72;3.63;;;;;;;2.81;77.48;100560.63;10356126;28;20037;-78
2022/01/08 12:53:17;;;;;;;8.25;4.25;;;;;;;2.81;76.43;100535.66;10340079;28;20029;-78
2022/01/08 12:58:25;;;;;;;8.60;4.07;;;;;;;2.88;76.86;100521.50;10374293;28;20087;-78
2022/01/08 13:03:36;;;;;;;11.23;3.50;;;;;;;2.83;77.07;100500.47;10356269;28;20485;-78
2022/01/08 13:08:36;;;;;;;5.35;2.35;;;;;;;2.77;76.29;100481.94;10338799;28;20025;-78
2022/01/08 13:13:49;;;;;;;4.60;2.90;;;;;;;2.70;78.32;100459.94;10354375;28;20036;-78
2022/01/08 13:18:54;;;;;;;4.75;2.75;;;;;;;2.54;78.47;100446.69;10372686;28;20046;-78
2022/01/08 13:23:55;;;;;;;4.78;1.98;;;;;;;2.41;78.97;100429.38;10356359;28;20029;-79
2022/01/08 13:28:56;;;;;;;3.55;1.88;;;;;;;2.31;79.87;100402.88;10353987;28;20543;-79
2022/01/08 13:33:56;;;;;;;4.93;3.13;;;;;;;2.26;81.70;100393.00;10338171;28;20077;-78
2022/01/08 13:38:57;;;;;;;7.50;2.20;;;;;;;2.17;82.36;100376.03;10370985;28;20132;-78
2022/01/08 13:44:01;;;;;;;6.90;2.85;;;;;;;2.03;83.54;100359.53;10339098;28;20561;-78
2022/01/08 13:49:03;;;;;;;8.25;3.70;;;;;;;1.94;84.06;100343.38;10371278;28;20138;-77
2022/01/08 13:54:06;;;;;;;5.30;1.73;;;;;;;1.85;84.50;100322.94;10357395;28;20511;-78
2022/01/08 13:59:17;;;;;;;14.73;2.78;;;;;;;1.60;86.02;100304.72;10362360;28;20026;-80
2022/01/08 14:04:17;;;;;;;10.20;1.95;;;;;;;1.51;87.20;100296.31;10363157;28;20018;-78
2022/01/08 14:09:18;;;;;;;7.22;2.30;;;;;;;1.38;87.43;100279.03;10377569;28;20117;-79
2022/01/08 14:14:20;;;;;;;3.30;1.63;;;;;;;1.34;87.31;100256.38;10378336;28;20036;-79
2022/01/08 14:19:20;;;;;;;8.30;2.75;;;;;;;1.29;87.73;100251.78;10361258;28;20084;-79
2022/01/08 14:24:22;;;;;;;5.40;2.22;;;;;;;1.29;88.34;100228.59;10360639;28;20061;-79
2022/01/08 14:29:25;;;;;;;5.78;2.00;;;;;;;1.29;88.44;100214.78;10362882;28;20061;-80
2022/01/08 14:34:26;;;;;;;6.68;2.05;;;;;;;1.22;89.66;100191.91;10367938;28;20033;-81
2022/01/08 14:39:32;;;;;;;7.15;2.47;;;;;;;1.31;89.35;100170.28;10314756;28;20549;-81
2022/01/08 14:44:33;;;;;;;3.50;2.15;;;;;;;1.33;89.29;100154.03;10377417;28;20034;-79
2022/01/08 14:49:34;;;;;;;8.63;2.72;;;;;;;1.38;89.48;100137.22;10378715;28;20037;-79
2022/01/08 14:54:35;;;;;;;3.80;2.28;;;;;;;1.37;90.16;100113.09;10377277;28;20033;-78
2022/01/08 14:59:35;;;;;;;4.38;2.13;;;;;;;1.41;90.62;100102.22;10357818;28;20030;-78
2022/01/08 15:04:37;;;;;;;4.97;2.97;;;;;;;1.36;90.62;100084.63;10375109;28;20485;-81
2022/01/08 15:09:37;;;;;;;4.93;2.60;;;;;;;1.38;90.52;100077.91;10375230;28;20030;-79
2022/01/08 15:14:38;;;;;;;5.50;2.55;;;;;;;1.42;91.05;100051.56;10376974;28;20061;-79
2022/01/08 15:19:38;;;;;;;4.68;2.33;;;;;;;1.54;91.11;100028.28;10374850;28;20449;-79
2022/01/08 15:24:39;;;;;;;5.70;2.97;;;;;;;1.67;91.10;99999.13;10376818;28;20131;-80
2022/01/08 15:29:39;;;;;;;6.35;2.08;;;;;;;1.83;90.93;99993.31;10374029;28;20111;-78
2022/01/08 15:34:40;;;;;;;7.60;2.38;;;;;;;1.88;90.46;99961.88;10375753;28;20061;-78
2022/01/08 15:39:40;;;;;;;5.68;2.08;;;;;;;2.02;90.71;99952.47;10375472;28;20404;-78
2022/01/08 15:44:44;;;;;;;4.55;2.33;;;;;;;2.10;90.35;99931.44;10358378;28;20052;-81
2022/01/08 15:49:45;;;;;;;3.38;1.67;;;;;;;2.16;90.15;99912.09;10374577;28;20037;-81
2022/01/08 15:54:46;;;;;;;2.92;1.50;;;;;;;2.27;89.96;99899.88;10358373;28;20181;-81
2022/01/08 15:59:47;;;;;;;1.25;0.77;;;;;;;2.32;89.36;99885.56;10374631;28;20504;-80
2022/01/08 16:04:49;;;;;;;1.38;0.93;;;;;;;2.43;89.55;99870.78;10372914;28;20037;-81
2022/01/08 16:09:49;;;;;;;3.58;2.67;;;;;;;2.48;88.86;99853.00;10372228;28;20041;-86
2022/01/08 16:14:50;;;;;;;1.67;0.93;;;;;;;2.51;88.80;99837.69;10360249;28;20065;-81
2022/01/08 16:19:50;;;;;;;2.13;1.05;;;;;;;2.63;88.28;99810.03;10355340;28;20052;-83
2022/01/08 16:24:51;;;;;;;2.17;1.20;;;;;;;2.61;87.81;99795.25;10352880;28;20068;-82
2022/01/08 16:29:51;;;;;;;3.45;1.13;;;;;;;2.72;87.70;99790.75;10369840;28;20030;-81
2022/01/08 16:34:52;;;;;;;1.60;1.02;;;;;;;2.78;87.31;99766.19;10384485;28;20125;-80
2022/01/08 16:39:52;;;;;;;1.52;0.80;;;;;;;2.86;86.80;99745.97;10371784;28;20547;-81
2022/01/08 16:44:53;;;;;;;1.23;0.70;;;;;;;2.85;87.06;99720.91;10370419;28;20481;-80
2022/01/08 16:49:53;;;;;;;3.13;0.90;;;;;;;2.86;86.99;99711.47;10370975;28;20026;-80
2022/01/08 16:54:54;;;;;;;1.83;0.85;;;;;;;2.82;87.48;99694.88;10387437;28;20124;-80
2022/01/08 16:59:54;;;;;;;2.15;1.05;;;;;;;2.94;87.30;99668.88;10370079;28;20381;-80
2022/01/08 17:04:55;;;;;;;1.25;0.73;;;;;;;2.97;87.75;99652.66;10368608;28;20041;-81
2022/01/08 17:09:55;;;;;;;1.25;0.75;;;;;;;3.04;87.11;99639.28;10368990;28;20537;-82
2022/01/08 17:14:57;;;;;;;1.95;1.08;;;;;;;3.06;87.44;99607.56;10349912;28;20026;-83
2022/01/08 17:19:58;;;;;;;1.40;0.75;;;;;;;3.08;87.75;99613.72;10369952;28;20029;-82
2022/01/08 17:25:00;;;;;;;1.13;0.70;;;;;;;3.08;87.52;99598.19;10382162;28;20508;-84
2022/01/08 17:30:00;;;;;;;2.08;0.75;;;;;;;3.08;87.41;99585.28;10374984;28;20510;-81
2022/01/08 17:35:01;;;;;;;2.35;1.17;;;;;;;3.11;87.25;99563.84;10373879;28;20073;-82
2022/01/08 17:40:02;;;;;;;2.75;0.95;;;;;;;3.06;87.31;99544.63;10386323;28;20053;-82
2022/01/08 17:45:04;;;;;;;0.85;0.43;;;;;;;3.10;87.69;99510.38;10382089;28;20562;-82
2022/01/08 17:50:05;;;;;;;3.30;0.47;;;;;;;3.21;86.77;99519.63;10371849;28;20022;-84
2022/01/08 17:55:06;;;;;;;0.82;0.40;;;;;;;3.24;86.62;99498.22;10354465;28;20034;-90
2022/01/08 18:00:08;;;;;;;1.00;0.50;;;;;;;3.20;86.30;99486.81;10353646;28;20070;-87
2022/01/08 18:05:09;;;;;;;1.13;0.57;;;;;;;3.21;86.43;99470.47;10341140;28;20034;-86
2022/01/08 18:10:11;;;;;;;2.53;0.43;;;;;;;3.23;86.91;99458.53;10322873;28;20030;-88
2022/01/08 18:15:12;;;;;;;1.00;0.47;;;;;;;3.25;87.17;99445.69;10322653;28;20520;-85
2022/01/08 18:20:21;;;;;;;1.48;0.70;;;;;;;3.21;87.04;99429.13;10357381;28;20053;-85
2022/01/08 18:25:22;;;;;;;2.08;0.73;;;;;;;3.17;87.44;99408.19;10345996;28;20030;-83
2022/01/08 18:30:25;;;;;;;0.50;0.33;;;;;;;3.21;87.40;99385.16;10364847;28;20022;-83
2022/01/08 18:35:25;;;;;;;;;;;;;;;3.18;87.32;99389.28;10372844;28;20041;-81
2022/01/08 18:40:28;;;;;;;1.75;0.77;;;;;;;3.14;87.37;99364.09;10364506;28;19932;-81
2022/01/08 18:45:35;;;;;;;1.35;0.63;;;;;;;3.17;88.05;99349.59;10353475;28;20041;-78
2022/01/08 18:50:36;;;;;;;1.23;0.70;;;;;;;3.13;87.88;99339.91;10374724;28;20061;-80
2022/01/08 18:55:37;;;;;;;1.35;0.45;;;;;;;3.07;88.65;99318.91;10365087;28;20144;-81
2022/01/08 19:00:39;;;;;;;1.73;0.75;;;;;;;3.06;88.27;99302.53;10353952;28;20041;-82
2022/01/08 19:05:41;;;;;;;0.93;0.55;;;;;;;3.01;88.59;99291.06;10358612;28;20037;-80
2022/01/08 19:10:45;;;;;;;1.15;0.50;;;;;;;3.05;88.28;99268.81;10383282;28;20038;-80
2022/01/08 19:15:49;;;;;;;1.33;0.65;;;;;;;3.11;88.13;99248.47;10399735;28;20037;-79
2022/01/08 19:20:49;;;;;;;1.27;1.02;;;;;;;3.12;87.53;99221.78;10383150;28;20036;-78
2022/01/08 19:25:51;;;;;;;1.30;1.13;;;;;;;3.15;87.40;99210.75;10380889;28;20033;-79
2022/01/08 19:30:51;;;;;;;0.88;0.60;;;;;;;3.20;86.87;99181.69;10378469;28;20026;-79
2022/01/08 19:35:52;;;;;;;1.05;0.50;;;;;;;3.22;87.20;99158.53;10389153;28;20059;-79
2022/01/08 19:40:56;;;;;;;1.23;0.60;;;;;;;3.30;86.88;99151.13;10394053;28;20511;-80
2022/01/08 19:45:57;;;;;;;1.25;0.70;;;;;;;3.35;85.83;99131.56;10384757;28;20076;-78
2022/01/08 19:50:58;;;;;;;0.75;0.35;;;;;;;3.31;85.99;99111.53;10379377;28;20038;-78
2022/01/08 19:55:59;;;;;;;2.17;0.90;;;;;;;3.35;85.78;99083.31;10372800;28;20084;-81
2022/01/08 20:00:59;;;;;;;1.08;0.73;;;;;;;3.49;84.70;99076.19;10356989;28;20100;-81
2022/01/08 20:06:00;;;;;;;0.57;0.40;;;;;;;3.58;84.41;99068.00;10381081;28;20037;-82
2022/01/08 20:11:00;;;;;;;3.45;1.52;;;;;;;3.68;84.14;99038.25;10379649;28;20069;-79
2022/01/08 20:16:01;;;;;;;4.57;0.60;;;;;;;3.64;84.71;99036.34;10385155;28;20045;-80
2022/01/08 20:21:01;;;;;;;1.67;0.50;;;;;;;3.59;85.40;99011.97;10374094;28;20030;-80
2022/01/08 20:26:02;;;;;;;0.95;0.43;;;;;;;3.62;85.52;99002.66;10354615;28;20041;-79
2022/01/08 20:31:04;;;;;;;0.73;0.40;;;;;;;3.54;86.09;98996.25;10373737;28;20500;-80
2022/01/08 20:36:04;;;;;;;1.77;0.70;;;;;;;3.55;85.81;98973.84;10372229;28;20034;-81
2022/01/08 20:41:05;;;;;;;1.23;0.63;;;;;;;3.56;85.68;98948.03;10372872;28;20046;-80
2022/01/08 20:46:05;;;;;;;3.08;0.40;;;;;;;3.55;85.92;98929.84;10372302;28;20038;-78
2022/01/08 20:51:06;;;;;;;1.00;0.55;;;;;;;3.51;86.42;98928.84;10372837;28;20116;-80
2022/01/08 20:56:06;;;;;;;0.93;0.40;;;;;;;3.53;85.76;98909.97;10353648;28;20620;-80
2022/01/08 21:01:07;;;;;;;0.30;0.30;;;;;;;3.63;84.49;98894.84;10370668;28;20024;-81
2022/01/08 21:06:08;;;;;;;0.77;0.45;;;;;;;3.65;84.70;98888.94;10369787;28;20030;-82
2022/01/08 21:11:08;;;;;;;0.50;0.40;;;;;;;3.63;84.99;98874.16;10354993;28;20046;-80
2022/01/08 21:16:09;;;;;;;0.93;0.40;;;;;;;3.65;84.02;98860.50;10371730;28;20029;-80
2022/01/08 21:21:09;;;;;;;0.98;0.45;;;;;;;3.70;83.51;98850.31;10370481;28;20041;-81
2022/01/08 21:26:10;;;;;;;0.75;0.40;;;;;;;3.81;82.30;98837.84;10352621;28;20057;-80
2022/01/08 21:31:10;;;;;;;0.28;0.28;;;;;;;3.88;82.39;98834.72;10355790;28;20076;-80
2022/01/08 21:36:14;;;;;;;1.10;0.68;;;;;;;3.83;82.45;98823.28;10370536;28;20044;-80
2022/01/08 21:41:15;;;;;;;0.88;0.40;;;;;;;3.92;81.48;98808.13;10370581;28;20405;-81
2022/01/08 21:46:17;;;;;;;1.08;0.40;;;;;;;3.91;81.60;98790.84;10370790;28;20033;-80
2022/01/08 21:51:20;;;;;;;1.05;0.22;;;;;;;3.89;81.79;98781.22;10366762;28;20037;-81
2022/01/08 21:56:21;;;;;;;0.43;0.22;;;;;;;3.85;83.01;98767.28;10366988;28;20054;-82
2022/01/08 22:01:22;;;;;;;1.05;0.28;;;;;;;3.70;83.33;98764.06;10368344;28;20038;-81
2022/01/08 22:06:23;;;;;;;0.65;0.40;;;;;;;3.58;85.19;98754.09;10369427;28;20440;-81
2022/01/08 22:11:23;;;;;;;0.40;0.40;;;;;;;3.52;85.54;98737.50;10369524;28;20057;-80
2022/01/08 22:16:24;;;;;;;0.98;0.45;;;;;;;3.51;86.18;98720.19;10374165;28;20073;-80
2022/01/08 22:21:24;;;;;;;1.08;0.40;;;;;;;3.48;86.15;98714.91;10376187;28;20878;-80
2022/01/08 22:26:25;;;;;;;0.88;0.52;;;;;;;3.47;86.67;98710.56;10376308;28;20091;-81
2022/01/08 22:31:25;;;;;;;1.70;0.60;;;;;;;3.44;87.38;98694.91;10375688;28;20041;-81
2022/01/08 22:36:26;;;;;;;0.82;0.32;;;;;;;3.48;87.22;98683.88;10408625;28;20040;-81
2022/01/08 22:41:28;;;;;;;1.30;0.52;;;;;;;3.56;87.64;98662.59;10376372;28;20486;-80
2022/01/08 22:46:29;;;;;;;1.33;0.30;;;;;;;3.55;87.75;98660.84;10375330;28;20046;-80
2022/01/08 22:51:29;;;;;;;0.70;0.40;;;;;;;3.51;88.25;98652.97;10378305;28;20113;-81
2022/01/08 22:56:30;;;;;;;0.55;0.32;;;;;;;3.46;88.39;98644.13;10377038;28;20041;-80
2022/01/08 23:01:30;;;;;;;1.30;0.40;;;;;;;3.47;89.20;98642.44;10377186;28;20064;-80
2022/01/08 23:06:38;;;;;;;0.93;0.20;;;;;;;3.47;89.11;98637.28;10376690;28;20108;-81
2022/01/08 23:11:38;;;;;;;0.93;0.70;;;;;;;3.50;89.41;98642.56;10376915;28;20018;-81
2022/01/08 23:16:39;;;;;;;0.47;0.30;;;;;;;3.40;89.60;98646.47;10374971;28;20096;-81
2022/01/08 23:21:40;;;;;;;0.65;0.40;;;;;;;3.37;90.45;98631.72;10374755;28;20080;-81
2022/01/08 23:26:41;;;;;;;0.30;0.30;;;;;;;3.35;90.60;98615.28;10374351;28;20494;-81
2022/01/08 23:31:41;;;;;;;1.65;0.40;;;;;;;3.34;90.96;98605.75;10375711;28;20108;-81
2022/01/08 23:36:46;;;;;;;0.63;0.47;;;;;;;3.36;90.72;98611.88;10374150;28;20089;-82
2022/01/08 23:41:47;;;;;;;1.90;0.47;;;;;;;3.35;91.42;98602.34;10359539;28;20026;-82
2022/01/08 23:46:47;;;;;;;1.50;0.77;;;;;;;3.32;91.94;98606.50;10357175;28;20485;-82